createdAt,value
2018-06-23T00:00:52.612Z,99349.89
2018-06-23T00:03:06.364Z,99352.98
2018-06-23T00:05:19.061Z,99353.57
2018-06-23T00:07:31.479Z,99350.72
2018-06-23T00:09:43.824Z,99352.34
2018-06-23T00:11:56.194Z,99347.94
2018-06-23T00:14:08.608Z,99347.84
2018-06-23T00:16:21.243Z,99350.14
2018-06-23T00:18:33.583Z,99350.90
2018-06-23T00:20:46.145Z,99347.00
2018-06-23T00:22:58.560Z,99354.27
2018-06-23T00:25:15.443Z,99347.68
2018-06-23T00:27:27.844Z,99357.64
2018-06-23T00:29:40.221Z,99359.13
2018-06-23T00:31:53.388Z,99359.25
2018-06-23T00:34:05.910Z,99355.73
2018-06-23T00:36:18.497Z,99350.33
2018-06-23T00:38:30.923Z,99347.80
2018-06-23T00:40:43.446Z,99351.73
2018-06-23T00:42:57.011Z,99352.31
2018-06-23T00:45:09.385Z,99351.73
2018-06-23T00:47:21.754Z,99353.72
2018-06-23T00:49:34.848Z,99350.56
2018-06-23T00:51:47.346Z,99355.48
2018-06-23T00:53:59.830Z,99357.23
2018-06-23T00:56:12.184Z,99354.30
2018-06-23T00:58:24.594Z,99351.59
2018-06-23T01:00:37.089Z,99348.08
2018-06-23T01:02:49.470Z,99348.23
2018-06-23T01:05:01.897Z,99351.44
2018-06-23T01:07:14.231Z,99345.02
2018-06-23T01:09:26.918Z,99347.36
2018-06-23T01:11:39.286Z,99345.06
2018-06-23T01:13:51.658Z,99344.77
2018-06-23T01:16:04.060Z,99349.05
2018-06-23T01:18:16.549Z,99346.59
2018-06-23T01:20:28.960Z,99344.61
2018-06-23T01:22:41.376Z,99339.30
2018-06-23T01:24:53.758Z,99336.45
2018-06-23T01:27:06.221Z,99337.97
2018-06-23T01:29:18.734Z,99333.58
2018-06-23T01:31:31.336Z,99332.81
2018-06-23T01:33:45.425Z,99341.66
2018-06-23T01:35:57.894Z,99329.98
2018-06-23T01:38:10.368Z,99331.13
2018-06-23T01:40:22.742Z,99328.69
2018-06-23T01:42:35.185Z,99330.33
2018-06-23T01:44:47.685Z,99328.73
2018-06-23T01:47:00.057Z,99320.61
2018-06-23T01:49:13.093Z,99328.84
2018-06-23T01:51:25.476Z,99331.37
2018-06-23T01:53:37.955Z,99330.41
2018-06-23T01:55:50.466Z,99330.72
2018-06-23T01:58:02.851Z,99329.73
2018-06-23T02:00:15.570Z,99328.43
2018-06-23T02:02:28.349Z,99321.22
2018-06-23T02:04:40.815Z,99319.39
2018-06-23T02:06:53.151Z,99321.22
2018-06-23T02:09:07.666Z,99319.92
2018-06-23T02:11:20.310Z,99323.02
2018-06-23T02:13:32.647Z,99314.97
2018-06-23T02:15:50.747Z,99318.89
2018-06-23T02:18:08.684Z,99321.49
2018-06-23T02:20:26.648Z,99320.00
2018-06-23T02:22:44.723Z,99326.98
2018-06-23T02:25:02.765Z,99327.62
2018-06-23T02:27:20.810Z,99330.67
2018-06-23T02:29:38.761Z,99331.44
2018-06-23T02:31:56.733Z,99335.33
2018-06-23T02:34:14.708Z,99338.95
2018-06-23T02:36:27.106Z,99333.48
2018-06-23T02:38:39.612Z,99337.59
2018-06-23T02:40:52.061Z,99340.72
2018-06-23T02:43:04.642Z,99331.86
2018-06-23T02:45:17.034Z,99334.56
2018-06-23T02:47:29.476Z,99338.17
2018-06-23T02:49:41.870Z,99338.67
2018-06-23T02:51:54.447Z,99342.62
2018-06-23T02:54:07.038Z,99345.12
2018-06-23T02:56:19.839Z,99342.14
2018-06-23T02:58:33.835Z,99333.91
2018-06-23T03:00:46.243Z,99339.48
2018-06-23T03:02:58.587Z,99346.23
2018-06-23T03:05:10.988Z,99347.64
2018-06-23T03:07:23.369Z,99345.44
2018-06-23T03:09:35.774Z,99353.32
2018-06-23T03:11:48.208Z,99352.59
2018-06-23T03:14:00.618Z,99354.86
2018-06-23T03:16:13.867Z,99361.90
2018-06-23T03:18:26.290Z,99365.50
2018-06-23T03:20:38.760Z,99369.26
2018-06-23T03:22:51.288Z,99362.28
2018-06-23T03:25:04.951Z,99367.86
2018-06-23T03:27:17.333Z,99374.44
2018-06-23T03:29:30.982Z,99380.05
2018-06-23T03:31:43.467Z,99377.84
2018-06-23T03:33:55.830Z,99378.64
2018-06-23T03:36:08.488Z,99377.84
2018-06-23T03:38:20.995Z,99377.55
2018-06-23T03:40:33.414Z,99375.97
2018-06-23T03:42:45.854Z,99380.25
2018-06-23T03:44:59.614Z,99384.34
2018-06-23T03:47:12.382Z,99383.50
2018-06-23T03:49:24.840Z,99375.97
2018-06-23T03:51:37.409Z,99372.38
2018-06-23T03:53:49.876Z,99374.41
2018-06-23T03:56:02.875Z,99376.83
2018-06-23T03:58:15.290Z,99366.56
2018-06-23T04:00:27.748Z,99367.30
2018-06-23T04:02:40.206Z,99369.44
2018-06-23T04:04:52.615Z,99370.23
2018-06-23T04:07:05.023Z,99370.91
2018-06-23T04:09:17.430Z,99370.48
2018-06-23T04:11:29.869Z,99367.37
2018-06-23T04:13:42.219Z,99367.05
2018-06-23T04:15:54.713Z,99362.14
2018-06-23T04:18:09.085Z,99356.55
2018-06-23T04:20:21.509Z,99367.14
2018-06-23T04:22:33.976Z,99366.89
2018-06-23T04:24:46.404Z,99372.84
2018-06-23T04:26:58.826Z,99374.72
2018-06-23T04:29:11.286Z,99369.89
2018-06-23T04:31:23.658Z,99364.41
2018-06-23T04:33:36.018Z,99375.74
2018-06-23T04:35:48.631Z,99381.08
2018-06-23T04:38:01.043Z,99382.97
2018-06-23T04:40:13.494Z,99382.69
2018-06-23T04:42:25.936Z,99381.59
2018-06-23T04:44:38.387Z,99381.17
2018-06-23T04:46:50.914Z,99380.98
2018-06-23T04:49:03.394Z,99376.31
2018-06-23T04:51:15.954Z,99383.64
2018-06-23T04:53:28.478Z,99388.41
2018-06-23T04:55:40.933Z,99377.86
2018-06-23T04:57:55.551Z,99380.33
2018-06-23T05:00:08.051Z,99382.01
2018-06-23T05:02:20.478Z,99380.66
2018-06-23T05:04:32.916Z,99384.39
2018-06-23T05:06:45.360Z,99386.89
2018-06-23T05:08:58.300Z,99389.50
2018-06-23T05:11:10.759Z,99390.42
2018-06-23T05:13:23.187Z,99398.42
2018-06-23T05:15:35.799Z,99401.03
2018-06-23T05:17:48.223Z,99394.25
2018-06-23T05:20:00.612Z,99396.92
2018-06-23T05:22:13.214Z,99395.80
2018-06-23T05:24:25.645Z,99389.04
2018-06-23T05:26:38.187Z,99391.37
2018-06-23T05:28:50.682Z,99389.92
2018-06-23T05:31:03.139Z,99392.28
2018-06-23T05:33:19.456Z,99392.03
2018-06-23T05:35:31.958Z,99390.98
2018-06-23T05:37:44.473Z,99392.70
2018-06-23T05:39:57.178Z,99388.22
2018-06-23T05:42:09.575Z,99391.08
2018-06-23T05:44:22.141Z,99387.75
2018-06-23T05:46:34.739Z,99393.16
2018-06-23T05:48:47.156Z,99388.84
2018-06-23T05:51:01.511Z,99387.16
2018-06-23T05:53:14.155Z,99385.86
2018-06-23T05:55:26.632Z,99379.69
2018-06-23T05:57:39.363Z,99381.41
2018-06-23T05:59:51.775Z,99376.42
2018-06-23T06:02:04.543Z,99382.86
2018-06-23T06:04:16.983Z,99382.72
2018-06-23T06:06:29.397Z,99383.33
2018-06-23T06:08:41.762Z,99383.48
2018-06-23T06:10:54.190Z,99388.91
2018-06-23T06:13:06.655Z,99380.81
2018-06-23T06:15:19.146Z,99380.94
2018-06-23T06:17:33.418Z,99384.39
2018-06-23T06:19:45.906Z,99390.87
2018-06-23T06:21:59.000Z,99389.95
2018-06-23T06:24:11.395Z,99389.40
2018-06-23T06:26:23.831Z,99388.22
2018-06-23T06:28:36.274Z,99382.33
2018-06-23T06:30:48.727Z,99379.82
2018-06-23T06:33:02.052Z,99384.03
2018-06-23T06:35:14.465Z,99381.89
2018-06-23T06:37:26.866Z,99379.74
2018-06-23T06:39:39.523Z,99380.32
2018-06-23T06:41:52.073Z,99382.27
2018-06-23T06:44:04.515Z,99385.55
2018-06-23T06:46:16.927Z,99386.63
2018-06-23T06:48:29.481Z,99381.11
2018-06-23T06:50:41.893Z,99381.58
2018-06-23T06:52:54.311Z,99382.53
2018-06-23T06:55:06.674Z,99376.83
2018-06-23T06:57:19.247Z,99379.12
2018-06-23T06:59:31.687Z,99375.25
2018-06-23T07:01:44.260Z,99369.90
2018-06-23T07:03:57.351Z,99368.09
2018-06-23T07:06:09.829Z,99362.02
2018-06-23T07:08:23.158Z,99359.70
2018-06-23T07:10:35.565Z,99358.17
2018-06-23T07:12:48.257Z,99359.21
2018-06-23T07:15:00.657Z,99351.11
2018-06-23T07:17:14.627Z,99360.62
2018-06-23T07:19:27.038Z,99358.11
2018-06-23T07:21:43.322Z,99361.52
2018-06-23T07:23:56.649Z,99359.00
2018-06-23T07:26:09.163Z,99360.66
2018-06-23T07:28:21.587Z,99361.22
2018-06-23T07:30:35.059Z,99362.51
2018-06-23T07:32:47.843Z,99358.24
2018-06-23T07:35:00.302Z,99357.30
2018-06-23T07:37:12.680Z,99355.72
2018-06-23T07:39:25.244Z,99357.20
2018-06-23T07:41:43.582Z,99356.55
2018-06-23T07:43:56.072Z,99366.45
2018-06-23T07:46:08.687Z,99362.02
2018-06-23T07:48:21.439Z,99364.13
2018-06-23T07:50:34.035Z,99352.63
2018-06-23T07:52:46.479Z,99357.98
2018-06-23T07:54:59.907Z,99350.91
2018-06-23T07:57:12.344Z,99352.05
2018-06-23T07:59:24.833Z,99342.72
2018-06-23T08:01:38.103Z,99345.71
2018-06-23T08:03:51.181Z,99336.15
2018-06-23T08:06:04.137Z,99337.00
2018-06-23T08:08:17.474Z,99332.82
2018-06-23T08:10:30.501Z,99328.83
2018-06-23T08:12:42.866Z,99332.06
2018-06-23T08:14:55.437Z,99326.91
2018-06-23T08:17:08.703Z,99334.30
2018-06-23T08:19:21.247Z,99324.88
2018-06-23T08:21:33.762Z,99327.77
2018-06-23T08:23:46.381Z,99322.50
2018-06-23T08:26:00.740Z,99326.47
2018-06-23T08:28:13.455Z,99322.51
2018-06-23T08:30:26.130Z,99329.91
2018-06-23T08:32:38.559Z,99331.45
2018-06-23T08:34:51.704Z,99333.53
2018-06-23T08:37:04.331Z,99336.47
2018-06-23T08:39:16.838Z,99331.09
2018-06-23T08:41:29.342Z,99330.95
2018-06-23T08:43:41.862Z,99320.73
2018-06-23T08:45:54.278Z,99321.50
2018-06-23T08:48:06.816Z,99322.59
2018-06-23T08:50:19.366Z,99318.91
2018-06-23T08:52:31.970Z,99320.51
2018-06-23T08:54:46.432Z,99305.12
2018-06-23T08:56:58.975Z,99313.78
2018-06-23T08:59:11.448Z,99320.28
2018-06-23T09:01:24.086Z,99320.31
2018-06-23T09:03:37.574Z,99321.84
2018-06-23T09:05:50.057Z,99314.34
2018-06-23T09:08:02.454Z,99310.95
2018-06-23T09:10:16.024Z,99316.89
2018-06-23T09:12:28.659Z,99316.38
2018-06-23T09:14:42.305Z,99316.27
2018-06-23T09:16:54.897Z,99317.11
2018-06-23T09:19:10.167Z,99319.47
2018-06-23T09:21:24.476Z,99318.37
2018-06-23T09:23:41.109Z,99304.44
2018-06-23T09:25:53.525Z,99309.25
2018-06-23T09:28:07.890Z,99309.44
2018-06-23T09:30:20.244Z,99309.80
2018-06-23T09:32:33.478Z,99307.30
2018-06-23T09:34:49.972Z,99309.95
2018-06-23T09:37:02.332Z,99316.25
2018-06-23T09:39:15.156Z,99308.45
2018-06-23T09:41:29.518Z,99310.53
2018-06-23T09:43:42.770Z,99322.01
2018-06-23T09:45:55.309Z,99321.14
2018-06-23T09:48:09.863Z,99323.90
2018-06-23T09:50:22.770Z,99319.64
2018-06-23T09:52:37.096Z,99323.02
2018-06-23T09:54:50.403Z,99313.47
2018-06-23T09:57:02.798Z,99314.28
2018-06-23T09:59:16.069Z,99316.49
2018-06-23T10:01:29.261Z,99317.94
2018-06-23T10:03:44.655Z,99324.12
2018-06-23T10:05:57.214Z,99319.77
2018-06-23T10:08:10.591Z,99315.63
2018-06-23T10:10:23.068Z,99321.53
2018-06-23T10:12:38.669Z,99324.34
2018-06-23T10:14:51.736Z,99323.64
2018-06-23T10:17:04.370Z,99325.56
2018-06-23T10:19:16.821Z,99329.03
2018-06-23T10:21:29.355Z,99321.34
2018-06-23T10:23:41.712Z,99326.38
2018-06-23T10:25:54.221Z,99322.45
2018-06-23T10:28:07.364Z,99320.91
2018-06-23T10:30:19.857Z,99324.38
2018-06-23T10:32:32.760Z,99321.03
2018-06-23T10:34:46.049Z,99322.20
2018-06-23T10:36:58.745Z,99326.52
2018-06-23T10:39:11.944Z,99320.42
2018-06-23T10:41:24.735Z,99322.06
2018-06-23T10:43:37.222Z,99318.98
2018-06-23T10:45:49.732Z,99319.59
2018-06-23T10:48:02.389Z,99318.72
2018-06-23T10:50:14.874Z,99317.66
2018-06-23T10:52:27.522Z,99313.84
2018-06-23T10:54:40.004Z,99315.89
2018-06-23T10:56:52.955Z,99318.91
2018-06-23T10:59:05.638Z,99322.77
2018-06-23T11:01:18.199Z,99321.08
2018-06-23T11:03:30.585Z,99323.81
2018-06-23T11:05:43.124Z,99319.50
2018-06-23T11:07:55.617Z,99314.37
2018-06-23T11:10:08.380Z,99311.49
2018-06-23T11:12:21.059Z,99304.84
2018-06-23T11:14:33.552Z,99306.95
2018-06-23T11:16:46.002Z,99299.95
2018-06-23T11:18:58.530Z,99297.10
2018-06-23T11:21:10.926Z,99286.78
2018-06-23T11:23:23.363Z,99279.77
2018-06-23T11:25:35.806Z,99274.41
2018-06-23T11:27:48.898Z,99271.42
2018-06-23T11:30:01.739Z,99269.83
2018-06-23T11:32:14.148Z,99267.27
2018-06-23T11:34:26.553Z,99266.11
2018-06-23T11:36:39.076Z,99263.46
2018-06-23T11:38:52.462Z,99257.77
2018-06-23T11:41:04.980Z,99259.05
2018-06-23T11:43:17.553Z,99256.41
2018-06-23T11:45:31.283Z,99249.91
2018-06-23T11:47:45.383Z,99251.44
2018-06-23T11:49:57.773Z,99249.02
2018-06-23T11:52:10.515Z,99243.74
2018-06-23T11:54:23.139Z,99245.52
2018-06-23T11:56:35.604Z,99248.59
2018-06-23T11:58:48.090Z,99243.50
2018-06-23T12:01:03.727Z,99253.19
2018-06-23T12:03:18.130Z,99239.74
2018-06-23T12:05:30.628Z,99240.88
2018-06-23T12:07:43.883Z,99244.91
2018-06-23T12:09:57.109Z,99239.56
2018-06-23T12:12:15.317Z,99234.73
2018-06-23T12:14:27.717Z,99230.77
2018-06-23T12:16:40.257Z,99230.50
2018-06-23T12:18:53.727Z,99217.84
2018-06-23T12:21:06.228Z,99221.14
2018-06-23T12:23:19.313Z,99225.86
2018-06-23T12:25:31.855Z,99220.05
2018-06-23T12:27:44.274Z,99217.83
2018-06-23T12:29:57.373Z,99210.56
2018-06-23T12:32:12.802Z,99218.88
2018-06-23T12:34:25.286Z,99211.05
2018-06-23T12:36:38.318Z,99215.77
2018-06-23T12:38:51.557Z,99213.84
2018-06-23T12:41:03.903Z,99209.48
2018-06-23T12:43:19.941Z,99208.43
2018-06-23T12:45:32.370Z,99205.73
2018-06-23T12:47:45.660Z,99198.84
2018-06-23T12:49:58.058Z,99191.17
2018-06-23T12:52:11.464Z,99188.59
2018-06-23T12:54:24.510Z,99191.48
2018-06-23T12:56:37.017Z,99193.27
2018-06-23T12:58:49.454Z,99192.27
2018-06-23T13:01:02.703Z,99189.90
2018-06-23T13:03:15.200Z,99179.59
2018-06-23T13:05:27.606Z,99175.05
2018-06-23T13:07:42.761Z,99161.53
2018-06-23T13:09:56.541Z,99171.95
2018-06-23T13:12:08.967Z,99167.72
2018-06-23T13:14:21.608Z,99167.59
2018-06-23T13:16:34.729Z,99154.66
2018-06-23T13:18:48.535Z,99154.77
2018-06-23T13:21:00.974Z,99155.28
2018-06-23T13:23:14.712Z,99154.80
2018-06-23T13:25:27.196Z,99158.67
2018-06-23T13:27:41.733Z,99152.98
2018-06-23T13:29:54.375Z,99145.27
2018-06-23T13:32:06.830Z,99148.86
2018-06-23T13:34:21.263Z,99151.30
2018-06-23T13:36:33.646Z,99144.31
2018-06-23T13:38:46.044Z,99146.81
2018-06-23T13:41:01.730Z,99140.13
2018-06-23T13:43:14.141Z,99142.22
2018-06-23T13:45:27.454Z,99136.44
2018-06-23T13:47:42.716Z,99128.62
2018-06-23T13:49:55.095Z,99130.56
2018-06-23T13:52:08.327Z,99130.23
2018-06-23T13:54:21.615Z,99136.69
2018-06-23T13:56:33.970Z,99130.02
2018-06-23T13:58:46.406Z,99130.84
2018-06-23T14:00:58.893Z,99128.06
2018-06-23T14:03:11.368Z,99129.94
2018-06-23T14:05:27.815Z,99125.36
2018-06-23T14:07:40.416Z,99128.48
2018-06-23T14:09:52.897Z,99129.25
2018-06-23T14:12:05.468Z,99130.09
2018-06-23T14:14:17.842Z,99123.12
2018-06-23T14:16:30.211Z,99119.15
2018-06-23T14:18:44.474Z,99126.19
2018-06-23T14:20:57.787Z,99124.44
2018-06-23T14:23:10.157Z,99125.91
2018-06-23T14:25:22.574Z,99131.25
2018-06-23T14:27:35.219Z,99126.74
2018-06-23T14:29:47.655Z,99119.09
2018-06-23T14:32:00.376Z,99123.49
2018-06-23T14:34:12.527Z,99120.36
2018-06-23T14:36:25.034Z,99116.55
2018-06-23T14:38:40.518Z,99107.53
2018-06-23T14:40:53.027Z,99110.33
2018-06-23T14:43:05.570Z,99103.17
2018-06-23T14:45:18.102Z,99112.20
2018-06-23T14:47:30.621Z,99120.06
2018-06-23T14:49:43.013Z,99114.58
2018-06-23T14:51:55.472Z,99117.77
2018-06-23T14:54:07.879Z,99113.35
2018-06-23T14:56:20.253Z,99112.13
2018-06-23T14:58:32.691Z,99103.30
2018-06-23T15:00:45.994Z,99111.25
2018-06-23T15:02:58.381Z,99102.45
2018-06-23T15:05:10.779Z,99111.25
2018-06-23T15:07:25.925Z,99106.32
2018-06-23T15:09:50.648Z,99108.25
2018-06-23T15:12:14.418Z,99112.88
2018-06-23T15:14:26.812Z,99099.15
2018-06-23T15:16:39.234Z,99107.48
2018-06-23T15:18:51.750Z,99104.13
2018-06-23T15:21:04.179Z,99106.46
2018-06-23T15:23:20.402Z,99099.86
2018-06-23T15:25:32.903Z,99098.66
2018-06-23T15:27:45.322Z,99095.56
2018-06-23T15:29:57.727Z,99096.44
2018-06-23T15:32:13.098Z,99095.61
2018-06-23T15:34:25.466Z,99090.59
2018-06-23T15:36:37.825Z,99088.59
2018-06-23T15:38:52.147Z,99087.83
2018-06-23T15:41:05.166Z,99089.01
2018-06-23T15:43:17.587Z,99092.44
2018-06-23T15:45:30.018Z,99081.98
2018-06-23T15:47:42.508Z,99077.92
2018-06-23T15:49:54.949Z,99078.90
2018-06-23T15:52:09.383Z,99077.66
2018-06-23T15:54:21.838Z,99072.11
2018-06-23T15:56:34.265Z,99074.70
2018-06-23T15:58:46.825Z,99072.41
2018-06-23T16:00:59.571Z,99069.38
2018-06-23T16:03:11.913Z,99068.39
2018-06-23T16:05:24.307Z,99068.27
2018-06-23T16:07:39.624Z,99070.35
2018-06-23T16:09:52.125Z,99069.59
2018-06-23T16:12:04.450Z,99068.73
2018-06-23T16:14:16.821Z,99064.70
2018-06-23T16:16:29.202Z,99057.13
2018-06-23T16:18:42.600Z,99062.14
2018-06-23T16:20:55.013Z,99060.59
2018-06-23T16:23:07.637Z,99061.91
2018-06-23T16:25:20.050Z,99057.84
2018-06-23T16:27:32.509Z,99059.16
2018-06-23T16:29:44.878Z,99060.67
2018-06-23T16:31:57.350Z,99054.77
2018-06-23T16:34:09.762Z,99060.81
2018-06-23T16:36:23.129Z,99058.56
2018-06-23T16:38:35.490Z,99055.48
2018-06-23T16:40:47.898Z,99047.48
2018-06-23T16:43:00.418Z,99053.02
2018-06-23T16:45:12.925Z,99052.72
2018-06-23T16:47:25.493Z,99054.88
2018-06-23T16:49:37.904Z,99056.61
2018-06-23T16:51:50.338Z,99047.97
2018-06-23T16:54:02.746Z,99049.29
2018-06-23T16:56:15.162Z,99040.31
2018-06-23T16:58:27.573Z,99039.90
2018-06-23T17:00:40.042Z,99041.15
2018-06-23T17:02:52.442Z,99040.47
2018-06-23T17:05:04.959Z,99045.25
2018-06-23T17:07:17.478Z,99050.80
2018-06-23T17:09:29.969Z,99051.62
2018-06-23T17:11:42.422Z,99045.78
2018-06-23T17:13:54.814Z,99053.09
2018-06-23T17:16:08.861Z,99051.69
2018-06-23T17:18:21.340Z,99060.70
2018-06-23T17:20:33.705Z,99052.70
2018-06-23T17:22:46.134Z,99055.45
2018-06-23T17:24:58.561Z,99057.00
2018-06-23T17:27:10.969Z,99060.05
2018-06-23T17:29:23.338Z,99058.80
2018-06-23T17:31:35.938Z,99059.38
2018-06-23T17:33:48.386Z,99058.09
2018-06-23T17:36:00.972Z,99058.47
2018-06-23T17:38:13.346Z,99061.47
2018-06-23T17:40:25.726Z,99058.23
2018-06-23T17:42:38.221Z,99053.55
2018-06-23T17:44:50.660Z,99054.64
2018-06-23T17:47:03.186Z,99059.89
2018-06-23T17:49:15.634Z,99064.91
2018-06-23T17:51:28.251Z,99057.80
2018-06-23T17:53:40.622Z,99061.30
2018-06-23T17:55:53.134Z,99061.05
2018-06-23T17:58:05.693Z,99056.52
2018-06-23T18:00:18.011Z,99056.75
2018-06-23T18:02:30.540Z,99064.14
2018-06-23T18:04:42.975Z,99065.46
2018-06-23T18:06:55.340Z,99069.45
2018-06-23T18:09:08.942Z,99069.59
2018-06-23T18:11:21.395Z,99068.53
2018-06-23T18:13:33.890Z,99063.67
2018-06-23T18:15:46.334Z,99067.29
2018-06-23T18:17:58.793Z,99073.07
2018-06-23T18:20:11.243Z,99078.66
2018-06-23T18:22:23.642Z,99077.20
2018-06-23T18:24:36.052Z,99075.40
2018-06-23T18:26:48.522Z,99081.25
2018-06-23T18:29:00.946Z,99084.69
2018-06-23T18:31:13.310Z,99074.14
2018-06-23T18:33:25.706Z,99078.36
2018-06-23T18:35:38.149Z,99084.59
2018-06-23T18:37:50.580Z,99082.97
2018-06-23T18:40:03.547Z,99092.19
2018-06-23T18:42:15.997Z,99087.89
2018-06-23T18:44:28.398Z,99087.47
2018-06-23T18:46:40.957Z,99084.25
2018-06-23T18:48:53.467Z,99084.59
2018-06-23T18:51:05.986Z,99086.11
2018-06-23T18:53:18.403Z,99083.75
2018-06-23T18:55:30.790Z,99086.52
2018-06-23T18:57:43.206Z,99084.70
2018-06-23T18:59:55.671Z,99087.20
2018-06-23T19:02:08.157Z,99088.67
2018-06-23T19:04:20.566Z,99092.52
2018-06-23T19:06:32.964Z,99092.38
2018-06-23T19:08:45.368Z,99089.99
2018-06-23T19:10:57.705Z,99092.77
2018-06-23T19:13:10.188Z,99094.95
2018-06-23T19:15:22.694Z,99096.61
2018-06-23T19:17:35.265Z,99103.34
2018-06-23T19:19:47.734Z,99106.69
2018-06-23T19:22:00.222Z,99103.84
2018-06-23T19:24:12.658Z,99098.20
2018-06-23T19:26:25.152Z,99108.38
2018-06-23T19:28:37.866Z,99108.49
2018-06-23T19:30:50.238Z,99103.47
2018-06-23T19:33:02.654Z,99105.86
2018-06-23T19:35:15.223Z,99103.84
2018-06-23T19:37:27.633Z,99108.14
2018-06-23T19:39:40.022Z,99109.70
2018-06-23T19:41:52.443Z,99101.22
2018-06-23T19:44:05.096Z,99106.23
2018-06-23T19:46:17.656Z,99104.59
2018-06-23T19:48:30.086Z,99105.89
2018-06-23T19:50:42.468Z,99106.02
2018-06-23T19:52:54.802Z,99111.78
2018-06-23T19:55:07.144Z,99121.34
2018-06-23T19:57:19.558Z,99119.86
2018-06-23T19:59:32.065Z,99126.42
2018-06-23T20:01:44.472Z,99129.38
2018-06-23T20:03:56.937Z,99125.05
2018-06-23T20:06:09.258Z,99126.81
2018-06-23T20:08:21.715Z,99134.27
2018-06-23T20:10:34.069Z,99132.13
2018-06-23T20:12:46.482Z,99127.80
2018-06-23T20:14:59.048Z,99129.81
2018-06-23T20:17:11.514Z,99135.83
2018-06-23T20:19:24.119Z,99136.27
2018-06-23T20:21:36.515Z,99132.93
2018-06-23T20:23:48.879Z,99132.89
2018-06-23T20:26:01.358Z,99126.55
2018-06-23T20:28:13.904Z,99128.94
2018-06-23T20:30:26.346Z,99128.20
2018-06-23T20:32:38.759Z,99132.44
2018-06-23T20:34:51.150Z,99135.75
2018-06-23T20:37:03.660Z,99136.45
2018-06-23T20:39:16.204Z,99135.95
2018-06-23T20:41:28.828Z,99132.92
2018-06-23T20:43:41.269Z,99133.73
2018-06-23T20:45:53.664Z,99134.42
2018-06-23T20:48:06.031Z,99128.77
2018-06-23T20:50:18.473Z,99126.69
2018-06-23T20:52:30.861Z,99122.58
2018-06-23T20:54:43.263Z,99124.34
2018-06-23T20:56:55.681Z,99119.40
2018-06-23T20:59:08.119Z,99124.70
2018-06-23T21:01:20.715Z,99133.26
2018-06-23T21:03:33.044Z,99134.23
2018-06-23T21:05:45.756Z,99134.44
2018-06-23T21:07:58.205Z,99134.41
2018-06-23T21:10:38.094Z,99131.31
2018-06-23T21:12:50.476Z,99130.20
2018-06-23T21:15:02.901Z,99137.64
2018-06-23T21:17:15.287Z,99135.23
2018-06-23T21:19:27.670Z,99139.28
2018-06-23T21:21:40.047Z,99133.88
2018-06-23T21:23:52.426Z,99133.44
2018-06-23T21:26:04.889Z,99130.03
2018-06-23T21:28:17.305Z,99138.22
2018-06-23T21:30:29.799Z,99136.63
2018-06-23T21:32:42.167Z,99140.09
2018-06-23T21:34:54.621Z,99143.86
2018-06-23T21:37:07.150Z,99132.06
2018-06-23T21:39:19.673Z,99138.73
2018-06-23T21:41:32.041Z,99135.28
2018-06-23T21:43:44.554Z,99138.46
2018-06-23T21:45:57.058Z,99134.17
2018-06-23T21:48:10.018Z,99133.70
2018-06-23T21:50:22.473Z,99139.50
2018-06-23T21:52:34.930Z,99133.58
2018-06-23T21:54:47.316Z,99135.48
2018-06-23T21:56:59.831Z,99141.64
2018-06-23T21:59:12.219Z,99142.95
2018-06-23T22:01:24.642Z,99141.28
2018-06-23T22:03:37.060Z,99138.30
2018-06-23T22:05:49.477Z,99143.06
2018-06-23T22:08:01.846Z,99136.41
2018-06-23T22:10:14.289Z,99134.65
2018-06-23T22:12:26.714Z,99139.89
2018-06-23T22:14:39.214Z,99135.72
2018-06-23T22:16:51.846Z,99142.75
2018-06-23T22:19:04.227Z,99136.41
2018-06-23T22:21:16.622Z,99134.73
2018-06-23T22:23:29.089Z,99137.27
2018-06-23T22:25:41.478Z,99142.03
2018-06-23T22:27:53.890Z,99140.92
2018-06-23T22:30:06.331Z,99136.52
2018-06-23T22:32:18.855Z,99134.69
2018-06-23T22:34:31.259Z,99134.89
2018-06-23T22:36:43.637Z,99137.23
2018-06-23T22:38:56.049Z,99132.47
2018-06-23T22:41:08.510Z,99125.09
2018-06-23T22:43:20.887Z,99132.55
2018-06-23T22:45:33.269Z,99123.62
2018-06-23T22:47:45.719Z,99130.61
2018-06-23T22:49:58.163Z,99133.98
2018-06-23T22:52:10.525Z,99127.31
2018-06-23T22:54:22.959Z,99123.86
2018-06-23T22:56:35.400Z,99124.65
2018-06-23T22:58:47.794Z,99125.67
2018-06-23T23:01:00.242Z,99131.69
2018-06-23T23:03:12.678Z,99125.45
2018-06-23T23:05:25.183Z,99127.50
2018-06-23T23:07:38.063Z,99127.25
2018-06-23T23:09:50.490Z,99124.25
2018-06-23T23:12:03.541Z,99132.29
2018-06-23T23:14:15.929Z,99124.00
2018-06-23T23:16:28.371Z,99121.57
2018-06-23T23:18:40.820Z,99121.01
2018-06-23T23:20:53.234Z,99120.28
2018-06-23T23:23:05.842Z,99119.81
2018-06-23T23:25:18.255Z,99118.50
2018-06-23T23:27:30.733Z,99115.97
2018-06-23T23:29:43.102Z,99121.78
2018-06-23T23:31:55.478Z,99112.70
2018-06-23T23:34:07.959Z,99117.50
2018-06-23T23:36:20.326Z,99114.68
2018-06-23T23:38:32.803Z,99117.31
2018-06-23T23:40:45.304Z,99116.60
2018-06-23T23:42:57.642Z,99114.95
2018-06-23T23:45:10.246Z,99110.64
2018-06-23T23:47:22.823Z,99113.37
2018-06-23T23:49:35.226Z,99113.38
2018-06-23T23:51:47.554Z,99118.24
2018-06-23T23:53:59.958Z,99113.09
2018-06-23T23:56:12.391Z,99113.09
2018-06-23T23:58:24.761Z,99111.97
